Map

Track Data

SID SEASON NUMBER BASIN SUBBASIN NAME ISO_TIME NATURE LAT LON WMO_WIND WMO_PRES WMO_AGENCY TRACK_TYPE DIST2LAND LANDFALL IFLAG USA_AGENCY USA_ATCF_ID USA_LAT USA_LON USA_RECORD USA_STATUS USA_WIND USA_PRES USA_SSHS USA_R34_NE USA_R34_SE USA_R34_SW USA_R34_NW USA_R50_NE USA_R50_SE USA_R50_SW USA_R50_NW USA_R64_NE USA_R64_SE USA_R64_SW USA_R64_NW USA_POCI USA_ROCI USA_RMW USA_EYE TOKYO_LAT TOKYO_LON TOKYO_GRADE TOKYO_WIND TOKYO_PRES TOKYO_R50_DIR TOKYO_R50_LONG TOKYO_R50_SHORT TOKYO_R30_DIR TOKYO_R30_LONG TOKYO_R30_SHORT TOKYO_LAND CMA_LAT CMA_LON CMA_CAT CMA_WIND CMA_PRES HKO_LAT HKO_LON HKO_CAT HKO_WIND HKO_PRES NEWDELHI_LAT NEWDELHI_LON NEWDELHI_GRADE NEWDELHI_WIND NEWDELHI_PRES NEWDELHI_CI NEWDELHI_DP NEWDELHI_POCI REUNION_LAT REUNION_LON REUNION_TYPE REUNION_WIND REUNION_PRES REUNION_TNUM REUNION_CI REUNION_RMW REUNION_R34_NE REUNION_R34_SE REUNION_R34_SW REUNION_R34_NW REUNION_R50_NE REUNION_R50_SE REUNION_R50_SW REUNION_R50_NW REUNION_R64_NE REUNION_R64_SE REUNION_R64_SW REUNION_R64_NW BOM_LAT BOM_LON BOM_TYPE BOM_WIND BOM_PRES BOM_TNUM BOM_CI BOM_RMW BOM_R34_NE BOM_R34_SE BOM_R34_SW BOM_R34_NW BOM_R50_NE BOM_R50_SE BOM_R50_SW BOM_R50_NW BOM_R64_NE BOM_R64_SE BOM_R64_SW BOM_R64_NW BOM_ROCI BOM_POCI BOM_EYE BOM_POS_METHOD BOM_PRES_METHOD NADI_LAT NADI_LON NADI_CAT NADI_WIND NADI_PRES WELLINGTON_LAT WELLINGTON_LON WELLINGTON_WIND WELLINGTON_PRES DS824_LAT DS824_LON DS824_STAGE DS824_WIND DS824_PRES TD9636_LAT TD9636_LON TD9636_STAGE TD9636_WIND TD9636_PRES TD9635_LAT TD9635_LON TD9635_WIND TD9635_PRES TD9635_ROCI NEUMANN_LAT NEUMANN_LON NEUMANN_CLASS NEUMANN_WIND NEUMANN_PRES MLC_LAT MLC_LON MLC_CLASS MLC_WIND MLC_PRES USA_GUST BOM_GUST BOM_GUST_PER REUNION_GUST REUNION_GUST_PER USA_SEAHGT USA_SEARAD_NE USA_SEARAD_SE USA_SEARAD_SW USA_SEARAD_NW STORM_SPEED STORM_DIR
1877046S12079 1877 8 SI MM NOT_NAMED 1877-02-14 18:00:00 NR -12.4000 78.9000 main 2058 2058 __________O___ -1 -12.4000 78.9000 7 10 220
1877046S12079 1877 8 SI MM NOT_NAMED 1877-02-14 21:00:00 NR -12.7675 78.5837 main 2106 2106 __________P___ -1 -12.7675 78.5837 7 9 220
1877046S12079 1877 8 SI MM NOT_NAMED 1877-02-15 00:00:00 NR -13.1179 78.2735 main 2143 2143 __________P___ -1 -13.1179 78.2735 7 9 222
1877046S12079 1877 8 SI MM NOT_NAMED 1877-02-15 03:00:00 NR -13.4343 77.9765 main 2181 2181 __________P___ -1 -13.4343 77.9765 7 8 224
1877046S12079 1877 8 SI MM NOT_NAMED 1877-02-15 06:00:00 NR -13.7000 77.7000 main 2219 2211 __________O___ -1 -13.7000 77.7000 7 7 227
1877046S12079 1877 8 SI MM NOT_NAMED 1877-02-15 09:00:00 NR -13.9042 77.4490 main 2201 2172 __________P___ -1 -13.9042 77.4490 7 6 232
1877046S12079 1877 8 SI MM NOT_NAMED 1877-02-15 12:00:00 NR -14.0598 77.2195 main 2172 2148 __________P___ -1 -14.0598 77.2195 7 5 237
1877046S12079 1877 8 SI MM NOT_NAMED 1877-02-15 15:00:00 NR -14.1855 77.0053 main 2148 2124 __________P___ -1 -14.1855 77.0053 7 5 239
1877046S12079 1877 8 SI MM NOT_NAMED 1877-02-15 18:00:00 NR -14.3000 76.8000 main 2124 2100 __________O___ -1 -14.3000 76.8000 7 5 241
1877046S12079 1877 8 SI MM NOT_NAMED 1877-02-15 21:00:00 NR -14.4077 76.5925 main 2100 2076 __________P___ -1 -14.4077 76.5925 7 4 242
1877046S12079 1877 8 SI MM NOT_NAMED 1877-02-16 00:00:00 NR -14.5124 76.3921 main 2076 2052 __________P___ -1 -14.5124 76.3921 7 4 239
1877046S12079 1877 8 SI MM NOT_NAMED 1877-02-16 03:00:00 NR -14.6359 76.1956 main 2052 2024 __________P___ -1 -14.6359 76.1956 7 5 233
1877046S12079 1877 8 SI MM NOT_NAMED 1877-02-16 06:00:00 NR -14.8000 76.0000 main 2024 1996 __________O___ -1 -14.8000 76.0000 7 6 224
1877046S12079 1877 8 SI MM NOT_NAMED 1877-02-16 09:00:00 NR -15.0318 75.8000 main 1996 1964 __________P___ -1 -15.0318 75.8000 7 6 217
1877046S12079 1877 8 SI MM NOT_NAMED 1877-02-16 12:00:00 NR -15.3049 75.6000 main 1964 1933 __________P___ -1 -15.3049 75.6000 7 7 214
1877046S12079 1877 8 SI MM NOT_NAMED 1877-02-16 15:00:00 NR -15.6006 75.4000 main 1933 1902 __________P___ -1 -15.6006 75.4000 7 7 213
1877046S12079 1877 8 SI MM NOT_NAMED 1877-02-16 18:00:00 NR -15.9000 75.2000 main 1902 1875 __________O___ -1 -15.9000 75.2000 7 7 216
1877046S12079 1877 8 SI MM NOT_NAMED 1877-02-16 21:00:00 NR -16.1548 74.9756 main 1872 1845 __________P___ -1 -16.1548 74.9756 7 7 220
1877046S12079 1877 8 SI MM NOT_NAMED 1877-02-17 00:00:00 NR -16.4126 74.7551 main 1845 1815 __________P___ -1 -16.4126 74.7551 7 7 217
1877046S12079 1877 8 SI MM NOT_NAMED 1877-02-17 03:00:00 NR -16.6892 74.5570 main 1815 1786 __________P___ -1 -16.6892 74.5570 7 7 210
1877046S12079 1877 8 SI MM NOT_NAMED 1877-02-17 06:00:00 NR -17.0000 74.4000 main 1786 1768 __________O___ -1 -17.0000 74.4000 7 7 202
1877046S12079 1877 8 SI MM NOT_NAMED 1877-02-17 09:00:00 NR -17.3639 74.2706 main 1765 1747 __________P___ -1 -17.3639 74.2706 7 8 195
1877046S12079 1877 8 SI MM NOT_NAMED 1877-02-17 12:00:00 NR -17.7623 74.1880 main 1745 1736 __________P___ -1 -17.7623 74.1880 7 8 187
1877046S12079 1877 8 SI MM NOT_NAMED 1877-02-17 15:00:00 NR -18.1795 74.1614 main 1736 1729 __________P___ -1 -18.1795 74.1614 7 8 0
1877046S12079 1877 8 SI MM NOT_NAMED 1877-02-17 18:00:00 NR -18.6000 74.2000 main 1729 1725 __________O___ -1 -18.6000 74.2000 7 8 172
1877046S12079 1877 8 SI MM NOT_NAMED 1877-02-17 21:00:00 NR -19.0040 74.2898 main 1733 1730 __________P___ -1 -19.0040 74.2898 7 8 164
1877046S12079 1877 8 SI MM NOT_NAMED 1877-02-18 00:00:00 NR -19.4074 74.4449 main 1738 1738 __________P___ -1 -19.4074 74.4449 7 9 157
1877046S12079 1877 8 SI MM NOT_NAMED 1877-02-18 03:00:00 NR -19.8071 74.6526 main 1765 1763 __________P___ -1 -19.8071 74.6526 7 9 152
1877046S12079 1877 8 SI MM NOT_NAMED 1877-02-18 06:00:00 NR -20.2000 74.9000 main 1782 1782 __________O___ -1 -20.2000 74.9000 7 9 149
1877046S12079 1877 8 SI MM NOT_NAMED 1877-02-18 09:00:00 NR -20.6025 75.1558 main 1812 1811 __________P___ -1 -20.6025 75.1558 7 10 147
1877046S12079 1877 8 SI MM NOT_NAMED 1877-02-18 12:00:00 NR -20.9949 75.4473 main 1831 1831 __________P___ -1 -20.9949 75.4473 7 10 143
1877046S12079 1877 8 SI MM NOT_NAMED 1877-02-18 15:00:00 NR -21.3649 75.7652 main 1873 1873 __________P___ -1 -21.3649 75.7652 7 9 139
1877046S12079 1877 8 SI MM NOT_NAMED 1877-02-18 18:00:00 NR -21.7000 76.1000 main 1904 1904 __________O___ -1 -21.7000 76.1000 7 9 135
1877046S12079 1877 8 SI MM NOT_NAMED 1877-02-18 21:00:00 NR -21.9918 76.4433 main 1936 1936 __________P___ -1 -21.9918 76.4433 7 8 130
1877046S12079 1877 8 SI MM NOT_NAMED 1877-02-19 00:00:00 NR -22.2480 76.7920 main 1978 1978 __________P___ -1 -22.2480 76.7920 7 8 127
1877046S12079 1877 8 SI MM NOT_NAMED 1877-02-19 03:00:00 NR -22.4802 77.1448 main 2011 2011 __________P___ -1 -22.4802 77.1448 7 8 125
1877046S12079 1877 8 SI MM NOT_NAMED 1877-02-19 06:00:00 NR -22.7000 77.5000 main 2053 __________O___ -1 -22.7000 77.5000 7 8 124

About IBTrACS Database

This database is a web-friendly format of International Best Track Archive for Climate Stewardship (IBTrACS), a global best track data archive curated by NOAA dating back to 1842.

Updated: 2021-12-01